Главная страница
METAR-TAF:

METAR-TAF

Аэропорты :

Frederick Municipal Airport

Фредерик, Мэриленд, США

широта: 39-25-03N, долгота: 077-22-28W, высота над уровнем моря: 92 м

Текущие метеонаблюдения

Эта сводка был подготовлена 12 минут назад, в 22:47 UTC
Ветер 3 Узел от восточный
Температура 16°C
Влажность 34%
Давление 1027 hPa
Видимость: 16.1 км
небольшая облачность на высоте 25000 фута

METAR: KFDK 192247Z 08003KT 10SM FEW250 16/00 A3033

Время: 18:59 (22:59 UTC)


TAF: отсутствует

Метеонаблюдения и прогнозы для более 4000 аэропортов (сводки METAR и TAF).

Имеющиеся станции представлены на карте желтыми и красными точками.

Чтобы увидеть название станции, наведите на нее мышь.

Затем щелкните, чтобы увидеть метеонаблюдения и метеопрогнозы.

Управление картой: чтобы увеличить масштаб, щелкните зеленые кнопки с черным крестиком; чтобы уменьшить масштаб, щелкните зеленую кнопку с тире; для просмотра соседних карт щелкайте зеленые стрелки.


METAR-TAF: